sensor_id;sensor_type;location;lat;lon;timestamp;pressure;altitude;pressure_sealevel;temperature;humidity
62011;BME280;47967;51.756;10.174;2023-07-20T04:01:27;99470.09;;;16.98;100.00
62011;BME280;47967;51.756;10.174;2023-07-20T04:05:30;99457.44;;;16.91;100.00
62011;BME280;47967;51.756;10.174;2023-07-20T04:09:33;99467.50;;;16.91;100.00
62011;BME280;47967;51.756;10.174;2023-07-20T04:13:36;99472.06;;;16.85;100.00
62011;BME280;47967;51.756;10.174;2023-07-20T04:17:40;99467.34;;;16.98;100.00
62011;BME280;47967;51.756;10.174;2023-07-20T04:21:43;99464.06;;;16.95;100.00
62011;BME280;47967;51.756;10.174;2023-07-20T04:25:46;99473.72;;;17.03;100.00
62011;BME280;47967;51.756;10.174;2023-07-20T04:29:49;99477.13;;;16.93;100.00
62011;BME280;47967;51.756;10.174;2023-07-20T04:33:53;99470.09;;;16.98;100.00
62011;BME280;47967;51.756;10.174;2023-07-20T04:37:56;99483.38;;;16.94;100.00
62011;BME280;47967;51.756;10.174;2023-07-20T04:41:59;99468.59;;;17.07;100.00
62011;BME280;47967;51.756;10.174;2023-07-20T04:46:02;99474.44;;;17.16;100.00
62011;BME280;47967;51.756;10.174;2023-07-20T04:50:09;99472.53;;;17.16;100.00
62011;BME280;47967;51.756;10.174;2023-07-20T04:54:12;99473.44;;;17.22;100.00
62011;BME280;47967;51.756;10.174;2023-07-20T04:58:15;99469.31;;;17.19;100.00
62011;BME280;47967;51.756;10.174;2023-07-20T05:02:18;99479.63;;;17.17;100.00
62011;BME280;47967;51.756;10.174;2023-07-20T05:06:22;99472.34;;;17.23;100.00
62011;BME280;47967;51.756;10.174;2023-07-20T05:10:25;99463.91;;;17.24;100.00
62011;BME280;47967;51.756;10.174;2023-07-20T05:14:28;99466.16;;;17.27;100.00
62011;BME280;47967;51.756;10.174;2023-07-20T05:18:31;99471.50;;;17.39;100.00
62011;BME280;47967;51.756;10.174;2023-07-20T05:22:35;99468.63;;;17.51;100.00
62011;BME280;47967;51.756;10.174;2023-07-20T05:26:41;99480.94;;;17.54;100.00
62011;BME280;47967;51.756;10.174;2023-07-20T05:30:43;99473.59;;;17.54;100.00
62011;BME280;47967;51.756;10.174;2023-07-20T05:34:46;99472.44;;;17.50;100.00
62011;BME280;47967;51.756;10.174;2023-07-20T05:38:50;99474.63;;;17.48;100.00
62011;BME280;47967;51.756;10.174;2023-07-20T05:42:53;99474.78;;;17.41;100.00
62011;BME280;47967;51.756;10.174;2023-07-20T05:46:58;99481.50;;;17.34;100.00
62011;BME280;47967;51.756;10.174;2023-07-20T05:51:01;99483.66;;;17.32;100.00
62011;BME280;47967;51.756;10.174;2023-07-20T05:55:06;99484.25;;;17.56;100.00
62011;BME280;47967;51.756;10.174;2023-07-20T05:59:08;99479.03;;;17.76;100.00
62011;BME280;47967;51.756;10.174;2023-07-20T06:03:11;99480.31;;;17.91;100.00
62011;BME280;47967;51.756;10.174;2023-07-20T06:07:14;99481.13;;;17.91;100.00
62011;BME280;47967;51.756;10.174;2023-07-20T06:11:18;99474.22;;;17.84;100.00
62011;BME280;47967;51.756;10.174;2023-07-20T06:15:27;99473.59;;;17.76;100.00
62011;BME280;47967;51.756;10.174;2023-07-20T06:19:30;99477.72;;;17.79;100.00
62011;BME280;47967;51.756;10.174;2023-07-20T06:23:33;99483.38;;;17.72;100.00
62011;BME280;47967;51.756;10.174;2023-07-20T06:27:37;99487.66;;;17.68;100.00
62011;BME280;47967;51.756;10.174;2023-07-20T06:31:40;99488.25;;;17.70;100.00
62011;BME280;47967;51.756;10.174;2023-07-20T06:35:42;99488.56;;;17.74;100.00
62011;BME280;47967;51.756;10.174;2023-07-20T06:39:45;99500.44;;;17.85;100.00
62011;BME280;47967;51.756;10.174;2023-07-20T06:43:52;99503.88;;;17.75;100.00
62011;BME280;47967;51.756;10.174;2023-07-20T06:47:59;99495.09;;;17.73;100.00
62011;BME280;47967;51.756;10.174;2023-07-20T06:52:02;99494.84;;;17.52;100.00
62011;BME280;47967;51.756;10.174;2023-07-20T06:56:05;99510.44;;;17.35;100.00
62011;BME280;47967;51.756;10.174;2023-07-20T07:00:10;99539.44;;;17.24;100.00
62011;BME280;47967;51.756;10.174;2023-07-20T07:04:13;99534.03;;;16.61;100.00
62011;BME280;47967;51.756;10.174;2023-07-20T07:08:16;99529.31;;;16.10;100.00
62011;BME280;47967;51.756;10.174;2023-07-20T07:12:19;99543.25;;;15.61;100.00
62011;BME280;47967;51.756;10.174;2023-07-20T07:16:23;99541.50;;;15.19;100.00
62011;BME280;47967;51.756;10.174;2023-07-20T07:20:26;99553.19;;;15.08;100.00
62011;BME280;47967;51.756;10.174;2023-07-20T07:24:29;99553.31;;;15.13;100.00
62011;BME280;47967;51.756;10.174;2023-07-20T07:28:35;99553.09;;;15.50;100.00
62011;BME280;47967;51.756;10.174;2023-07-20T07:32:39;99553.41;;;15.66;100.00
62011;BME280;47967;51.756;10.174;2023-07-20T07:36:43;99563.81;;;15.81;100.00
62011;BME280;47967;51.756;10.174;2023-07-20T07:40:45;99567.19;;;16.00;100.00
62011;BME280;47967;51.756;10.174;2023-07-20T07:44:48;99577.38;;;15.93;100.00
62011;BME280;47967;51.756;10.174;2023-07-20T07:48:53;99580.34;;;15.79;100.00
62011;BME280;47967;51.756;10.174;2023-07-20T07:52:55;99581.06;;;15.87;100.00
62011;BME280;47967;51.756;10.174;2023-07-20T07:56:58;99592.69;;;15.58;100.00
62011;BME280;47967;51.756;10.174;2023-07-20T08:01:01;99582.28;;;16.20;100.00
62011;BME280;47967;51.756;10.174;2023-07-20T08:05:06;99584.63;;;16.86;100.00
62011;BME280;47967;51.756;10.174;2023-07-20T08:09:08;99581.28;;;17.12;100.00
62011;BME280;47967;51.756;10.174;2023-07-20T08:13:11;99581.56;;;17.33;100.00
62011;BME280;47967;51.756;10.174;2023-07-20T08:17:14;99596.97;;;17.05;100.00
62011;BME280;47967;51.756;10.174;2023-07-20T08:21:18;99593.56;;;16.98;100.00
62011;BME280;47967;51.756;10.174;2023-07-20T08:25:21;99588.53;;;17.24;100.00
62011;BME280;47967;51.756;10.174;2023-07-20T08:29:24;99589.41;;;17.86;100.00
62011;BME280;47967;51.756;10.174;2023-07-20T08:33:27;99591.28;;;18.24;100.00
62011;BME280;47967;51.756;10.174;2023-07-20T08:37:32;99597.38;;;18.32;100.00
62011;BME280;47967;51.756;10.174;2023-07-20T08:41:35;99605.22;;;17.84;100.00
62011;BME280;47967;51.756;10.174;2023-07-20T08:45:40;99601.81;;;17.37;100.00
62011;BME280;47967;51.756;10.174;2023-07-20T08:49:43;99604.47;;;17.49;100.00
62011;BME280;47967;51.756;10.174;2023-07-20T08:53:47;99620.84;;;17.32;100.00
62011;BME280;47967;51.756;10.174;2023-07-20T08:57:53;99615.19;;;17.22;100.00
62011;BME280;47967;51.756;10.174;2023-07-20T09:01:57;99608.59;;;17.18;100.00
62011;BME280;47967;51.756;10.174;2023-07-20T09:06:00;99612.88;;;17.48;100.00
62011;BME280;47967;51.756;10.174;2023-07-20T09:10:05;99606.97;;;18.89;100.00
62011;BME280;47967;51.756;10.174;2023-07-20T09:14:09;99616.16;;;19.05;100.00
62011;BME280;47967;51.756;10.174;2023-07-20T09:18:12;99615.41;;;18.11;100.00
62011;BME280;47967;51.756;10.174;2023-07-20T09:22:29;99619.81;;;18.12;100.00
62011;BME280;47967;51.756;10.174;2023-07-20T09:26:40;99610.63;;;18.45;100.00
62011;BME280;47967;51.756;10.174;2023-07-20T09:30:43;99615.00;;;18.73;100.00
62011;BME280;47967;51.756;10.174;2023-07-20T09:34:54;99622.56;;;18.88;100.00
62011;BME280;47967;51.756;10.174;2023-07-20T09:38:58;99609.75;;;19.59;100.00
62011;BME280;47967;51.756;10.174;2023-07-20T09:43:07;99608.53;;;20.46;100.00
62011;BME280;47967;51.756;10.174;2023-07-20T09:47:21;99617.84;;;20.55;92.21
62011;BME280;47967;51.756;10.174;2023-07-20T09:51:28;99621.00;;;19.25;86.21
62011;BME280;47967;51.756;10.174;2023-07-20T09:55:31;99612.56;;;18.99;91.81
62011;BME280;47967;51.756;10.174;2023-07-20T09:59:36;99619.81;;;18.61;92.01
62011;BME280;47967;51.756;10.174;2023-07-20T10:03:39;99631.38;;;18.68;93.01
62011;BME280;47967;51.756;10.174;2023-07-20T10:07:47;99629.00;;;18.28;93.05
62011;BME280;47967;51.756;10.174;2023-07-20T10:11:53;99620.47;;;18.46;95.16
62011;BME280;47967;51.756;10.174;2023-07-20T10:16:22;99610.78;;;18.88;90.83
62011;BME280;47967;51.756;10.174;2023-07-20T10:20:29;99615.09;;;19.44;87.64
62011;BME280;47967;51.756;10.174;2023-07-20T10:24:35;99613.56;;;20.06;84.85
62011;BME280;47967;51.756;10.174;2023-07-20T10:28:38;99619.34;;;20.89;85.70
62011;BME280;47967;51.756;10.174;2023-07-20T10:32:43;99620.16;;;21.46;82.60
62011;BME280;47967;51.756;10.174;2023-07-20T10:36:47;99608.34;;;20.73;78.79
62011;BME280;47967;51.756;10.174;2023-07-20T10:40:55;99613.16;;;19.82;80.47
62011;BME280;47967;51.756;10.174;2023-07-20T10:45:00;99606.88;;;20.45;77.50
62011;BME280;47967;51.756;10.174;2023-07-20T10:49:06;99612.78;;;21.16;71.02
62011;BME280;47967;51.756;10.174;2023-07-20T10:53:13;99599.84;;;21.63;70.16
62011;BME280;47967;51.756;10.174;2023-07-20T10:57:25;99611.63;;;21.53;63.63
62011;BME280;47967;51.756;10.174;2023-07-20T11:01:35;99608.34;;;21.61;66.44
62011;BME280;47967;51.756;10.174;2023-07-20T11:05:40;99602.88;;;22.42;69.04
62011;BME280;47967;51.756;10.174;2023-07-20T11:09:44;99590.19;;;22.51;63.71
62011;BME280;47967;51.756;10.174;2023-07-20T11:13:57;99606.19;;;22.34;63.63
62011;BME280;47967;51.756;10.174;2023-07-20T11:18:11;99595.69;;;22.51;59.79
62011;BME280;47967;51.756;10.174;2023-07-20T11:22:16;99600.41;;;22.35;56.43
62011;BME280;47967;51.756;10.174;2023-07-20T11:26:19;99603.56;;;22.03;56.19
62011;BME280;47967;51.756;10.174;2023-07-20T11:30:22;99615.22;;;21.22;58.28
62011;BME280;47967;51.756;10.174;2023-07-20T11:34:25;99602.25;;;21.85;60.89
62011;BME280;47967;51.756;10.174;2023-07-20T11:38:30;99590.72;;;21.83;59.10
62011;BME280;47967;51.756;10.174;2023-07-20T11:42:33;99588.16;;;22.12;55.95
62011;BME280;47967;51.756;10.174;2023-07-20T11:46:39;99596.31;;;22.38;53.70
62011;BME280;47967;51.756;10.174;2023-07-20T11:50:42;99592.34;;;22.94;52.62
62011;BME280;47967;51.756;10.174;2023-07-20T11:54:46;99584.25;;;23.43;50.28
62011;BME280;47967;51.756;10.174;2023-07-20T11:58:50;99591.44;;;22.69;48.55
62011;BME280;47967;51.756;10.174;2023-07-20T12:02:56;99608.63;;;21.49;50.85
62011;BME280;47967;51.756;10.174;2023-07-20T12:06:59;99594.34;;;21.73;49.95
62011;BME280;47967;51.756;10.174;2023-07-20T12:11:03;99589.41;;;22.35;49.16
62011;BME280;47967;51.756;10.174;2023-07-20T12:15:17;99589.38;;;22.51;48.88
62011;BME280;47967;51.756;10.174;2023-07-20T12:19:20;99593.69;;;21.97;49.30
62011;BME280;47967;51.756;10.174;2023-07-20T12:23:22;99598.75;;;22.39;49.96
62011;BME280;47967;51.756;10.174;2023-07-20T12:27:28;99580.34;;;22.80;47.73
62011;BME280;47967;51.756;10.174;2023-07-20T12:31:36;99583.03;;;22.90;46.04
62011;BME280;47967;51.756;10.174;2023-07-20T12:35:39;99581.09;;;22.91;46.16
62011;BME280;47967;51.756;10.174;2023-07-20T12:39:41;99591.44;;;22.14;46.83
62011;BME280;47967;51.756;10.174;2023-07-20T12:43:50;99577.09;;;22.22;46.55
62011;BME280;47967;51.756;10.174;2023-07-20T12:47:54;99590.22;;;21.70;47.55
62011;BME280;47967;51.756;10.174;2023-07-20T12:51:56;99590.44;;;21.84;47.81
62011;BME280;47967;51.756;10.174;2023-07-20T12:55:59;99576.16;;;21.82;47.76
62011;BME280;47967;51.756;10.174;2023-07-20T13:00:24;99563.50;;;22.52;49.73
62011;BME280;47967;51.756;10.174;2023-07-20T13:04:27;99557.53;;;22.79;46.51
62011;BME280;47967;51.756;10.174;2023-07-20T13:08:29;99569.41;;;22.75;48.87
62011;BME280;47967;51.756;10.174;2023-07-20T13:12:33;99570.94;;;22.51;47.72
62011;BME280;47967;51.756;10.174;2023-07-20T13:16:38;99566.59;;;22.40;44.32
62011;BME280;47967;51.756;10.174;2023-07-20T13:20:40;99556.00;;;22.63;42.86
62011;BME280;47967;51.756;10.174;2023-07-20T13:24:44;99556.69;;;23.18;43.73
62011;BME280;47967;51.756;10.174;2023-07-20T13:28:48;99561.91;;;22.85;42.82
62011;BME280;47967;51.756;10.174;2023-07-20T13:32:52;99565.28;;;22.72;42.27
62011;BME280;47967;51.756;10.174;2023-07-20T13:36:55;99557.94;;;22.97;44.38
62011;BME280;47967;51.756;10.174;2023-07-20T13:40:58;99566.16;;;22.67;42.57
62011;BME280;47967;51.756;10.174;2023-07-20T13:45:00;99551.59;;;22.67;42.62
62011;BME280;47967;51.756;10.174;2023-07-20T13:49:08;99552.84;;;23.20;40.83
62011;BME280;47967;51.756;10.174;2023-07-20T13:53:23;99550.72;;;23.06;41.34
62011;BME280;47967;51.756;10.174;2023-07-20T13:57:29;99547.59;;;23.96;39.55
62011;BME280;47967;51.756;10.174;2023-07-20T14:01:31;99548.28;;;23.82;40.19
62011;BME280;47967;51.756;10.174;2023-07-20T14:05:39;99555.25;;;24.42;37.50
62011;BME280;47967;51.756;10.174;2023-07-20T14:09:45;99546.81;;;23.42;39.24
62011;BME280;47967;51.756;10.174;2023-07-20T14:13:51;99539.34;;;23.96;39.17
62011;BME280;47967;51.756;10.174;2023-07-20T14:17:54;99544.09;;;23.66;38.40
62011;BME280;47967;51.756;10.174;2023-07-20T14:21:58;99536.47;;;23.82;38.76
62011;BME280;47967;51.756;10.174;2023-07-20T14:26:01;99527.84;;;23.11;40.59
62011;BME280;47967;51.756;10.174;2023-07-20T14:30:08;99528.09;;;22.35;42.53
62011;BME280;47967;51.756;10.174;2023-07-20T14:34:11;99532.47;;;23.15;42.10
62011;BME280;47967;51.756;10.174;2023-07-20T14:38:15;99525.94;;;24.85;39.64
62011;BME280;47967;51.756;10.174;2023-07-20T14:42:18;99522.25;;;24.56;37.98
62011;BME280;47967;51.756;10.174;2023-07-20T14:46:20;99526.44;;;25.20;36.90
62011;BME280;47967;51.756;10.174;2023-07-20T14:50:23;99517.03;;;26.32;36.43
62011;BME280;47967;51.756;10.174;2023-07-20T14:54:27;99515.81;;;27.38;36.50
62011;BME280;47967;51.756;10.174;2023-07-20T14:58:30;99518.09;;;27.13;32.47
62011;BME280;47967;51.756;10.174;2023-07-20T15:02:36;99524.91;;;26.39;35.67
62011;BME280;47967;51.756;10.174;2023-07-20T15:06:39;99505.88;;;26.83;34.21
62011;BME280;47967;51.756;10.174;2023-07-20T15:10:43;99516.25;;;27.00;33.40
62011;BME280;47967;51.756;10.174;2023-07-20T15:15:02;99522.28;;;26.06;34.16
62011;BME280;47967;51.756;10.174;2023-07-20T15:19:05;99522.16;;;24.42;38.64
62011;BME280;47967;51.756;10.174;2023-07-20T15:23:08;99515.16;;;24.50;37.90
62011;BME280;47967;51.756;10.174;2023-07-20T15:27:13;99512.22;;;24.60;39.42
62011;BME280;47967;51.756;10.174;2023-07-20T15:31:15;99508.75;;;24.55;38.86
62011;BME280;47967;51.756;10.174;2023-07-20T15:35:19;99510.75;;;25.48;38.38
62011;BME280;47967;51.756;10.174;2023-07-20T15:39:21;99503.19;;;25.82;37.86
62011;BME280;47967;51.756;10.174;2023-07-20T15:43:26;99504.41;;;25.62;37.37
62011;BME280;47967;51.756;10.174;2023-07-20T15:47:29;99516.91;;;24.79;38.18
62011;BME280;47967;51.756;10.174;2023-07-20T15:51:32;99494.38;;;23.76;40.14
62011;BME280;47967;51.756;10.174;2023-07-20T15:55:34;99494.97;;;23.25;41.85
62011;BME280;47967;51.756;10.174;2023-07-20T15:59:39;99499.72;;;23.14;42.88
62011;BME280;47967;51.756;10.174;2023-07-20T16:03:41;99497.16;;;23.28;42.64
62011;BME280;47967;51.756;10.174;2023-07-20T16:07:44;99487.06;;;23.42;41.76
62011;BME280;47967;51.756;10.174;2023-07-20T16:11:47;99491.00;;;24.42;39.92
62011;BME280;47967;51.756;10.174;2023-07-20T16:15:51;99500.25;;;24.51;39.91
62011;BME280;47967;51.756;10.174;2023-07-20T16:19:54;99496.88;;;22.95;41.35
62011;BME280;47967;51.756;10.174;2023-07-20T16:23:57;99497.84;;;22.80;42.99
62011;BME280;47967;51.756;10.174;2023-07-20T16:28:00;99500.31;;;22.81;42.59
62011;BME280;47967;51.756;10.174;2023-07-20T16:32:04;99491.38;;;23.73;41.98
62011;BME280;47967;51.756;10.174;2023-07-20T16:36:10;99484.16;;;25.38;39.16
62011;BME280;47967;51.756;10.174;2023-07-20T16:40:13;99470.03;;;26.55;37.63
62011;BME280;47967;51.756;10.174;2023-07-20T16:44:20;99477.50;;;27.40;35.08
62011;BME280;47967;51.756;10.174;2023-07-20T16:48:25;99478.16;;;27.86;34.90
62011;BME280;47967;51.756;10.174;2023-07-20T16:52:28;99471.47;;;27.38;34.79
62011;BME280;47967;51.756;10.174;2023-07-20T16:56:30;99468.72;;;26.52;35.74
62011;BME280;47967;51.756;10.174;2023-07-20T17:00:33;99462.88;;;25.53;37.44
62011;BME280;47967;51.756;10.174;2023-07-20T17:04:38;99471.69;;;24.61;39.52
62011;BME280;47967;51.756;10.174;2023-07-20T17:08:41;99475.75;;;23.68;41.39
62011;BME280;47967;51.756;10.174;2023-07-20T17:12:43;99480.22;;;24.07;41.26
62011;BME280;47967;51.756;10.174;2023-07-20T17:16:46;99473.06;;;23.63;41.51
62011;BME280;47967;51.756;10.174;2023-07-20T17:20:50;99469.63;;;23.28;42.42
62011;BME280;47967;51.756;10.174;2023-07-20T17:24:53;99473.88;;;22.85;42.93
62011;BME280;47967;51.756;10.174;2023-07-20T17:28:59;99460.59;;;23.46;42.27
62011;BME280;47967;51.756;10.174;2023-07-20T17:33:02;99463.78;;;23.78;41.58
62011;BME280;47967;51.756;10.174;2023-07-20T17:37:06;99461.84;;;24.74;40.38
62011;BME280;47967;51.756;10.174;2023-07-20T17:41:11;99456.34;;;25.49;40.56
62011;BME280;47967;51.756;10.174;2023-07-20T17:45:16;99450.59;;;26.10;38.63
62011;BME280;47967;51.756;10.174;2023-07-20T17:49:19;99447.34;;;25.43;39.60
62011;BME280;47967;51.756;10.174;2023-07-20T17:53:23;99453.03;;;25.19;40.37
62011;BME280;47967;51.756;10.174;2023-07-20T17:57:27;99451.78;;;25.25;40.36
62011;BME280;47967;51.756;10.174;2023-07-20T18:01:29;99454.06;;;25.51;40.17
62011;BME280;47967;51.756;10.174;2023-07-20T18:05:32;99455.84;;;25.00;40.91
62011;BME280;47967;51.756;10.174;2023-07-20T18:09:36;99445.13;;;24.98;41.26
62011;BME280;47967;51.756;10.174;2023-07-20T18:13:39;99448.78;;;24.60;41.96
62011;BME280;47967;51.756;10.174;2023-07-20T18:17:41;99452.06;;;24.29;42.77
62011;BME280;47967;51.756;10.174;2023-07-20T18:21:44;99444.16;;;23.41;44.13
62011;BME280;47967;51.756;10.174;2023-07-20T18:25:48;99437.66;;;23.02;45.42
62011;BME280;47967;51.756;10.174;2023-07-20T18:29:51;99446.91;;;22.53;46.48
62011;BME280;47967;51.756;10.174;2023-07-20T18:33:53;99447.78;;;22.09;47.86
62011;BME280;47967;51.756;10.174;2023-07-20T18:37:56;99444.63;;;21.81;49.48
62011;BME280;47967;51.756;10.174;2023-07-20T18:42:01;99448.66;;;21.33;52.19
62011;BME280;47967;51.756;10.174;2023-07-20T18:46:03;99455.88;;;20.88;51.95
62011;BME280;47967;51.756;10.174;2023-07-20T18:50:06;99452.03;;;20.37;53.19
62011;BME280;47967;51.756;10.174;2023-07-20T18:54:11;99464.31;;;19.98;54.15
62011;BME280;47967;51.756;10.174;2023-07-20T18:58:15;99461.63;;;19.50;55.96
62011;BME280;47967;51.756;10.174;2023-07-20T19:02:18;99459.63;;;19.30;57.24
62011;BME280;47967;51.756;10.174;2023-07-20T19:06:21;99465.00;;;19.10;58.13
62011;BME280;47967;51.756;10.174;2023-07-20T19:10:24;99459.69;;;18.93;59.05
62011;BME280;47967;51.756;10.174;2023-07-20T19:14:30;99456.28;;;18.80;60.00
62011;BME280;47967;51.756;10.174;2023-07-20T19:18:33;99453.88;;;18.51;61.38
62011;BME280;47967;51.756;10.174;2023-07-20T19:22:39;99461.50;;;18.17;63.04
62011;BME280;47967;51.756;10.174;2023-07-20T19:26:42;99463.09;;;17.90;64.52
62011;BME280;47967;51.756;10.174;2023-07-20T19:30:46;99465.78;;;17.85;65.14
62011;BME280;47967;51.756;10.174;2023-07-20T19:34:48;99482.03;;;17.97;65.24
62011;BME280;47967;51.756;10.174;2023-07-20T19:38:51;99489.91;;;17.71;66.42
62011;BME280;47967;51.756;10.174;2023-07-20T19:42:54;99493.50;;;17.33;67.49
62011;BME280;47967;51.756;10.174;2023-07-20T19:46:58;99489.22;;;17.20;68.90
62011;BME280;47967;51.756;10.174;2023-07-20T19:51:01;99505.34;;;17.04;69.48
62011;BME280;47967;51.756;10.174;2023-07-20T19:55:06;99500.47;;;17.06;70.79
62011;BME280;47967;51.756;10.174;2023-07-20T19:59:08;99508.41;;;17.08;70.75
62011;BME280;47967;51.756;10.174;2023-07-20T20:03:13;99511.56;;;17.00;70.22
62011;BME280;47967;51.756;10.174;2023-07-20T20:07:18;99508.78;;;16.83;70.24
62011;BME280;47967;51.756;10.174;2023-07-20T20:11:21;99514.09;;;16.72;70.60
62011;BME280;47967;51.756;10.174;2023-07-20T20:15:25;99511.50;;;16.65;70.78
62011;BME280;47967;51.756;10.174;2023-07-20T20:19:29;99512.66;;;16.70;72.08
62011;BME280;47967;51.756;10.174;2023-07-20T20:23:32;99513.25;;;16.55;74.42
62011;BME280;47967;51.756;10.174;2023-07-20T20:27:34;99506.06;;;16.48;75.36
62011;BME280;47967;51.756;10.174;2023-07-20T20:31:37;99512.66;;;16.36;77.02
62011;BME280;47967;51.756;10.174;2023-07-20T20:35:41;99518.91;;;16.07;78.12
62011;BME280;47967;51.756;10.174;2023-07-20T20:39:44;99517.06;;;15.96;79.25
62011;BME280;47967;51.756;10.174;2023-07-20T20:43:47;99515.91;;;15.80;79.90
62011;BME280;47967;51.756;10.174;2023-07-20T20:47:50;99513.56;;;15.60;80.63
62011;BME280;47967;51.756;10.174;2023-07-20T20:51:54;99505.81;;;15.51;82.12
62011;BME280;47967;51.756;10.174;2023-07-20T20:55:57;99507.47;;;15.41;82.61
62011;BME280;47967;51.756;10.174;2023-07-20T20:59:59;99506.91;;;15.03;83.34
